sensor_id;sensor_type;location;lat;lon;timestamp;temperature;humidity
11505;DHT22;5809;53.262;10.408;2023-04-06T00:03:12;1.90;99.90
11505;DHT22;5809;53.262;10.408;2023-04-06T00:10:35;1.80;99.90
11505;DHT22;5809;53.262;10.408;2023-04-06T00:13:02;1.70;99.90
11505;DHT22;5809;53.262;10.408;2023-04-06T00:15:29;1.70;99.90
11505;DHT22;5809;53.262;10.408;2023-04-06T00:20:24;1.70;99.90
11505;DHT22;5809;53.262;10.408;2023-04-06T00:22:52;1.70;99.90
11505;DHT22;5809;53.262;10.408;2023-04-06T00:25:20;1.70;99.90
11505;DHT22;5809;53.262;10.408;2023-04-06T00:27:47;1.70;99.90
11505;DHT22;5809;53.262;10.408;2023-04-06T00:37:36;1.60;99.90
11505;DHT22;5809;53.262;10.408;2023-04-06T00:42:33;1.40;99.90
11505;DHT22;5809;53.262;10.408;2023-04-06T00:45:01;1.40;99.90
11505;DHT22;5809;53.262;10.408;2023-04-06T00:47:28;1.30;99.90
11505;DHT22;5809;53.262;10.408;2023-04-06T00:49:56;1.30;99.90
11505;DHT22;5809;53.262;10.408;2023-04-06T00:52:23;1.30;99.90
11505;DHT22;5809;53.262;10.408;2023-04-06T00:54:51;1.20;99.90
11505;DHT22;5809;53.262;10.408;2023-04-06T00:57:19;1.20;99.90
11505;DHT22;5809;53.262;10.408;2023-04-06T00:59:46;1.10;99.90
11505;DHT22;5809;53.262;10.408;2023-04-06T01:04:41;1.00;99.90
11505;DHT22;5809;53.262;10.408;2023-04-06T01:07:08;1.00;99.90
11505;DHT22;5809;53.262;10.408;2023-04-06T01:12:03;1.00;99.90
11505;DHT22;5809;53.262;10.408;2023-04-06T01:14:32;1.00;99.90
11505;DHT22;5809;53.262;10.408;2023-04-06T01:16:59;0.80;99.90
11505;DHT22;5809;53.262;10.408;2023-04-06T01:21:54;0.60;99.90
11505;DHT22;5809;53.262;10.408;2023-04-06T01:26:50;0.50;99.90
11505;DHT22;5809;53.262;10.408;2023-04-06T01:34:12;0.50;99.90
11505;DHT22;5809;53.262;10.408;2023-04-06T01:39:07;0.40;99.90
11505;DHT22;5809;53.262;10.408;2023-04-06T01:41:35;0.40;99.90
11505;DHT22;5809;53.262;10.408;2023-04-06T01:44:02;0.30;99.90
11505;DHT22;5809;53.262;10.408;2023-04-06T01:46:30;0.40;99.90
11505;DHT22;5809;53.262;10.408;2023-04-06T01:53:52;0.30;99.90
11505;DHT22;5809;53.262;10.408;2023-04-06T01:56:19;0.20;99.90
11505;DHT22;5809;53.262;10.408;2023-04-06T01:58:48;0.20;99.90
11505;DHT22;5809;53.262;10.408;2023-04-06T02:01:15;0.10;99.90
11505;DHT22;5809;53.262;10.408;2023-04-06T02:11:04;-0.10;99.90
11505;DHT22;5809;53.262;10.408;2023-04-06T02:13:31;0.00;99.90
11505;DHT22;5809;53.262;10.408;2023-04-06T02:15:59;-0.10;99.90
11505;DHT22;5809;53.262;10.408;2023-04-06T02:18:28;-0.10;99.90
11505;DHT22;5809;53.262;10.408;2023-04-06T02:20:55;-0.10;99.90
11505;DHT22;5809;53.262;10.408;2023-04-06T02:25:49;-0.20;99.90
11505;DHT22;5809;53.262;10.408;2023-04-06T02:30:44;-0.20;99.90
11505;DHT22;5809;53.262;10.408;2023-04-06T02:33:13;-0.20;99.90
11505;DHT22;5809;53.262;10.408;2023-04-06T02:35:40;-0.30;99.90
11505;DHT22;5809;53.262;10.408;2023-04-06T02:38:07;-0.30;99.90
11505;DHT22;5809;53.262;10.408;2023-04-06T02:47:56;-0.30;99.90
11505;DHT22;5809;53.262;10.408;2023-04-06T02:50:24;-0.30;99.90
11505;DHT22;5809;53.262;10.408;2023-04-06T02:52:52;-0.40;99.90
11505;DHT22;5809;53.262;10.408;2023-04-06T02:57:46;-0.40;99.90
11505;DHT22;5809;53.262;10.408;2023-04-06T03:00:14;-0.40;99.90
11505;DHT22;5809;53.262;10.408;2023-04-06T03:02:41;-0.50;99.90
11505;DHT22;5809;53.262;10.408;2023-04-06T03:07:37;-0.50;99.90
11505;DHT22;5809;53.262;10.408;2023-04-06T03:10:05;-0.50;99.90
11505;DHT22;5809;53.262;10.408;2023-04-06T03:17:26;-0.40;99.90
11505;DHT22;5809;53.262;10.408;2023-04-06T03:19:53;-0.40;99.90
11505;DHT22;5809;53.262;10.408;2023-04-06T03:22:20;-0.40;99.90
11505;DHT22;5809;53.262;10.408;2023-04-06T03:24:49;-0.40;99.90
11505;DHT22;5809;53.262;10.408;2023-04-06T03:29:43;-0.50;99.90
11505;DHT22;5809;53.262;10.408;2023-04-06T03:34:38;-0.50;99.90
11505;DHT22;5809;53.262;10.408;2023-04-06T03:37:05;-0.50;99.90
11505;DHT22;5809;53.262;10.408;2023-04-06T03:39:32;-0.60;99.90
11505;DHT22;5809;53.262;10.408;2023-04-06T03:42:00;-0.60;99.90
11505;DHT22;5809;53.262;10.408;2023-04-06T03:44:27;-0.60;99.90
11505;DHT22;5809;53.262;10.408;2023-04-06T03:49:22;-0.60;99.90
11505;DHT22;5809;53.262;10.408;2023-04-06T03:54:16;-0.70;99.90
11505;DHT22;5809;53.262;10.408;2023-04-06T03:56:43;-0.70;99.90
11505;DHT22;5809;53.262;10.408;2023-04-06T03:59:12;-0.70;99.90
11505;DHT22;5809;53.262;10.408;2023-04-06T04:06:34;-0.70;99.90
11505;DHT22;5809;53.262;10.408;2023-04-06T04:09:02;-0.70;99.90
11505;DHT22;5809;53.262;10.408;2023-04-06T04:11:29;-0.80;99.90
11505;DHT22;5809;53.262;10.408;2023-04-06T04:16:25;-0.80;99.90
11505;DHT22;5809;53.262;10.408;2023-04-06T04:21:19;-0.80;99.90
11505;DHT22;5809;53.262;10.408;2023-04-06T04:23:46;-0.80;99.90
11505;DHT22;5809;53.262;10.408;2023-04-06T04:26:13;-0.80;99.90
11505;DHT22;5809;53.262;10.408;2023-04-06T04:28:40;-0.90;99.90
11505;DHT22;5809;53.262;10.408;2023-04-06T04:33:37;-0.90;99.90
11505;DHT22;5809;53.262;10.408;2023-04-06T04:36:04;-0.60;99.90
11505;DHT22;5809;53.262;10.408;2023-04-06T04:38:31;-0.90;99.90
11505;DHT22;5809;53.262;10.408;2023-04-06T04:45:53;-0.90;99.90
11505;DHT22;5809;53.262;10.408;2023-04-06T04:48:20;-0.90;99.90
11505;DHT22;5809;53.262;10.408;2023-04-06T04:50:48;-0.90;99.90
11505;DHT22;5809;53.262;10.408;2023-04-06T04:53:15;-0.90;99.90
11505;DHT22;5809;53.262;10.408;2023-04-06T04:55:42;-0.90;99.90
11505;DHT22;5809;53.262;10.408;2023-04-06T04:58:09;-0.90;99.90
11505;DHT22;5809;53.262;10.408;2023-04-06T05:05:36;-0.80;99.90
11505;DHT22;5809;53.262;10.408;2023-04-06T05:08:04;-0.70;99.90
11505;DHT22;5809;53.262;10.408;2023-04-06T05:17:54;0.00;99.90
11505;DHT22;5809;53.262;10.408;2023-04-06T05:25:17;0.60;99.90
11505;DHT22;5809;53.262;10.408;2023-04-06T05:32:39;1.10;99.90
11505;DHT22;5809;53.262;10.408;2023-04-06T05:35:06;1.30;99.90
11505;DHT22;5809;53.262;10.408;2023-04-06T05:37:33;1.40;99.90
11505;DHT22;5809;53.262;10.408;2023-04-06T05:40:00;1.50;99.90
11505;DHT22;5809;53.262;10.408;2023-04-06T05:42:36;1.60;99.90
11505;DHT22;5809;53.262;10.408;2023-04-06T05:45:04;1.80;99.90
11505;DHT22;5809;53.262;10.408;2023-04-06T05:47:31;2.00;99.90
11505;DHT22;5809;53.262;10.408;2023-04-06T05:52:25;2.40;99.90
11505;DHT22;5809;53.262;10.408;2023-04-06T05:57:19;2.60;99.90
11505;DHT22;5809;53.262;10.408;2023-04-06T05:59:49;3.90;99.90
11505;DHT22;5809;53.262;10.408;2023-04-06T06:02:16;2.50;99.90
11505;DHT22;5809;53.262;10.408;2023-04-06T06:04:43;2.40;99.90
11505;DHT22;5809;53.262;10.408;2023-04-06T06:07:10;2.40;99.90
11505;DHT22;5809;53.262;10.408;2023-04-06T06:09:37;2.90;99.90
11505;DHT22;5809;53.262;10.408;2023-04-06T06:12:04;3.60;99.90
11505;DHT22;5809;53.262;10.408;2023-04-06T06:14:31;3.50;99.90
11505;DHT22;5809;53.262;10.408;2023-04-06T06:16:59;3.20;99.90
11505;DHT22;5809;53.262;10.408;2023-04-06T06:19:26;3.00;99.90
11505;DHT22;5809;53.262;10.408;2023-04-06T06:21:54;3.00;99.90
11505;DHT22;5809;53.262;10.408;2023-04-06T06:24:21;3.60;99.90
11505;DHT22;5809;53.262;10.408;2023-04-06T06:26:48;3.70;99.90
11505;DHT22;5809;53.262;10.408;2023-04-06T06:29:15;4.20;99.90
11505;DHT22;5809;53.262;10.408;2023-04-06T06:31:42;4.40;99.90
11505;DHT22;5809;53.262;10.408;2023-04-06T06:34:11;4.50;99.90
11505;DHT22;5809;53.262;10.408;2023-04-06T06:36:38;4.50;99.90
11505;DHT22;5809;53.262;10.408;2023-04-06T06:39:05;4.70;99.90
11505;DHT22;5809;53.262;10.408;2023-04-06T06:41:32;4.80;99.90
11505;DHT22;5809;53.262;10.408;2023-04-06T06:44:00;4.60;99.90
11505;DHT22;5809;53.262;10.408;2023-04-06T06:46:27;5.00;99.90
11505;DHT22;5809;53.262;10.408;2023-04-06T06:48:54;6.70;99.90
11505;DHT22;5809;53.262;10.408;2023-04-06T06:51:22;6.80;99.90
11505;DHT22;5809;53.262;10.408;2023-04-06T06:53:49;6.80;99.90
11505;DHT22;5809;53.262;10.408;2023-04-06T06:56:16;7.10;99.90
11505;DHT22;5809;53.262;10.408;2023-04-06T06:58:43;6.60;99.90
11505;DHT22;5809;53.262;10.408;2023-04-06T07:01:10;6.90;99.90
11505;DHT22;5809;53.262;10.408;2023-04-06T07:03:37;6.90;99.90
11505;DHT22;5809;53.262;10.408;2023-04-06T07:06:04;7.20;99.90
11505;DHT22;5809;53.262;10.408;2023-04-06T07:08:33;7.30;99.90
11505;DHT22;5809;53.262;10.408;2023-04-06T07:11:00;6.90;99.90
11505;DHT22;5809;53.262;10.408;2023-04-06T07:13:27;7.40;99.90
11505;DHT22;5809;53.262;10.408;2023-04-06T07:15:54;7.10;99.90
11505;DHT22;5809;53.262;10.408;2023-04-06T07:18:21;7.20;99.90
11505;DHT22;5809;53.262;10.408;2023-04-06T07:20:49;7.20;99.90
11505;DHT22;5809;53.262;10.408;2023-04-06T07:23:16;7.50;99.90
11505;DHT22;5809;53.262;10.408;2023-04-06T07:25:44;7.60;99.90
11505;DHT22;5809;53.262;10.408;2023-04-06T07:28:11;7.50;99.90
11505;DHT22;5809;53.262;10.408;2023-04-06T07:30:40;7.60;99.90
11505;DHT22;5809;53.262;10.408;2023-04-06T07:33:07;8.10;99.90
11505;DHT22;5809;53.262;10.408;2023-04-06T07:35:34;8.70;99.90
11505;DHT22;5809;53.262;10.408;2023-04-06T07:38:02;9.90;99.90
11505;DHT22;5809;53.262;10.408;2023-04-06T07:40:29;10.70;99.90
11505;DHT22;5809;53.262;10.408;2023-04-06T07:42:58;9.80;99.90
11505;DHT22;5809;53.262;10.408;2023-04-06T07:45:25;9.70;99.90
11505;DHT22;5809;53.262;10.408;2023-04-06T07:47:52;9.50;99.90
11505;DHT22;5809;53.262;10.408;2023-04-06T07:50:19;10.20;99.90
11505;DHT22;5809;53.262;10.408;2023-04-06T07:52:47;11.20;99.90
11505;DHT22;5809;53.262;10.408;2023-04-06T07:55:14;10.80;99.90
11505;DHT22;5809;53.262;10.408;2023-04-06T07:57:41;10.50;99.90
11505;DHT22;5809;53.262;10.408;2023-04-06T08:00:10;9.00;99.90
11505;DHT22;5809;53.262;10.408;2023-04-06T08:05:05;10.00;99.90
11505;DHT22;5809;53.262;10.408;2023-04-06T08:07:32;10.00;99.90
11505;DHT22;5809;53.262;10.408;2023-04-06T08:09:59;9.90;99.90
11505;DHT22;5809;53.262;10.408;2023-04-06T08:12:26;10.40;99.90
11505;DHT22;5809;53.262;10.408;2023-04-06T08:14:53;10.20;99.90
11505;DHT22;5809;53.262;10.408;2023-04-06T08:17:22;10.20;99.90
11505;DHT22;5809;53.262;10.408;2023-04-06T08:19:49;10.50;99.90
11505;DHT22;5809;53.262;10.408;2023-04-06T08:22:16;10.50;99.90
11505;DHT22;5809;53.262;10.408;2023-04-06T08:24:43;10.70;99.90
11505;DHT22;5809;53.262;10.408;2023-04-06T08:27:10;10.80;99.90
11505;DHT22;5809;53.262;10.408;2023-04-06T08:29:38;11.40;99.90
11505;DHT22;5809;53.262;10.408;2023-04-06T08:32:05;11.20;99.90
11505;DHT22;5809;53.262;10.408;2023-04-06T08:34:34;10.90;99.90
11505;DHT22;5809;53.262;10.408;2023-04-06T08:37:01;10.60;99.90
11505;DHT22;5809;53.262;10.408;2023-04-06T08:39:28;10.50;99.90
11505;DHT22;5809;53.262;10.408;2023-04-06T08:41:56;10.20;99.90
11505;DHT22;5809;53.262;10.408;2023-04-06T08:44:25;9.90;99.90
11505;DHT22;5809;53.262;10.408;2023-04-06T08:46:52;9.90;99.90
11505;DHT22;5809;53.262;10.408;2023-04-06T08:49:20;9.90;99.90
11505;DHT22;5809;53.262;10.408;2023-04-06T08:51:49;10.50;99.90
11505;DHT22;5809;53.262;10.408;2023-04-06T08:54:16;10.50;99.90
11505;DHT22;5809;53.262;10.408;2023-04-06T08:56:43;10.20;99.90
11505;DHT22;5809;53.262;10.408;2023-04-06T08:59:11;10.20;99.90
11505;DHT22;5809;53.262;10.408;2023-04-06T09:01:39;10.00;99.90
11505;DHT22;5809;53.262;10.408;2023-04-06T09:04:07;10.40;99.90
11505;DHT22;5809;53.262;10.408;2023-04-06T09:06:36;10.40;99.90
11505;DHT22;5809;53.262;10.408;2023-04-06T09:09:05;10.90;99.90
11505;DHT22;5809;53.262;10.408;2023-04-06T09:11:43;10.30;99.90
11505;DHT22;5809;53.262;10.408;2023-04-06T09:14:10;10.50;99.90
11505;DHT22;5809;53.262;10.408;2023-04-06T09:16:40;10.50;99.90
11505;DHT22;5809;53.262;10.408;2023-04-06T09:19:08;10.60;99.90
11505;DHT22;5809;53.262;10.408;2023-04-06T09:21:35;10.60;99.90
11505;DHT22;5809;53.262;10.408;2023-04-06T09:24:05;10.60;99.90
11505;DHT22;5809;53.262;10.408;2023-04-06T09:26:43;11.00;99.90
11505;DHT22;5809;53.262;10.408;2023-04-06T09:29:10;11.00;99.90
11505;DHT22;5809;53.262;10.408;2023-04-06T09:31:48;11.60;99.90
11505;DHT22;5809;53.262;10.408;2023-04-06T09:34:21;11.60;99.90
11505;DHT22;5809;53.262;10.408;2023-04-06T09:36:48;12.10;99.90
11505;DHT22;5809;53.262;10.408;2023-04-06T09:39:20;11.30;99.90
11505;DHT22;5809;53.262;10.408;2023-04-06T09:41:52;11.40;99.90
11505;DHT22;5809;53.262;10.408;2023-04-06T09:44:20;11.50;99.90
11505;DHT22;5809;53.262;10.408;2023-04-06T09:46:47;11.50;99.90
11505;DHT22;5809;53.262;10.408;2023-04-06T09:49:14;11.50;99.90
11505;DHT22;5809;53.262;10.408;2023-04-06T09:51:45;11.70;99.90
11505;DHT22;5809;53.262;10.408;2023-04-06T09:54:18;12.50;99.90
11505;DHT22;5809;53.262;10.408;2023-04-06T09:56:46;12.40;99.90
11505;DHT22;5809;53.262;10.408;2023-04-06T09:59:18;12.40;99.90
11505;DHT22;5809;53.262;10.408;2023-04-06T10:01:49;12.80;99.90
11505;DHT22;5809;53.262;10.408;2023-04-06T10:04:24;12.80;99.90
11505;DHT22;5809;53.262;10.408;2023-04-06T10:06:55;14.10;99.90
11505;DHT22;5809;53.262;10.408;2023-04-06T10:09:26;14.10;99.90
11505;DHT22;5809;53.262;10.408;2023-04-06T10:11:55;12.80;99.90
11505;DHT22;5809;53.262;10.408;2023-04-06T10:14:22;13.50;99.90
11505;DHT22;5809;53.262;10.408;2023-04-06T10:16:50;14.20;99.90
11505;DHT22;5809;53.262;10.408;2023-04-06T10:19:22;14.00;99.90
11505;DHT22;5809;53.262;10.408;2023-04-06T10:21:54;13.60;99.90
11505;DHT22;5809;53.262;10.408;2023-04-06T10:24:24;13.40;99.90
11505;DHT22;5809;53.262;10.408;2023-04-06T10:26:57;12.60;99.90
11505;DHT22;5809;53.262;10.408;2023-04-06T10:29:25;12.50;99.90
11505;DHT22;5809;53.262;10.408;2023-04-06T10:31:53;12.50;99.90
11505;DHT22;5809;53.262;10.408;2023-04-06T10:34:21;12.60;99.90
11505;DHT22;5809;53.262;10.408;2023-04-06T10:36:48;12.50;99.90
11505;DHT22;5809;53.262;10.408;2023-04-06T10:39:25;13.10;99.90
11505;DHT22;5809;53.262;10.408;2023-04-06T10:41:53;13.60;99.90
11505;DHT22;5809;53.262;10.408;2023-04-06T10:44:21;13.90;99.90
11505;DHT22;5809;53.262;10.408;2023-04-06T10:46:55;14.90;99.90
11505;DHT22;5809;53.262;10.408;2023-04-06T10:49:24;12.90;99.90
11505;DHT22;5809;53.262;10.408;2023-04-06T10:51:53;12.10;99.90
11505;DHT22;5809;53.262;10.408;2023-04-06T10:54:21;12.10;99.90
11505;DHT22;5809;53.262;10.408;2023-04-06T10:56:50;11.70;99.90
11505;DHT22;5809;53.262;10.408;2023-04-06T10:59:20;11.70;99.90
11505;DHT22;5809;53.262;10.408;2023-04-06T11:01:47;12.30;99.90
11505;DHT22;5809;53.262;10.408;2023-04-06T11:04:16;12.80;99.90
11505;DHT22;5809;53.262;10.408;2023-04-06T11:06:46;13.10;99.90
11505;DHT22;5809;53.262;10.408;2023-04-06T11:09:23;13.80;99.90
11505;DHT22;5809;53.262;10.408;2023-04-06T11:11:53;14.80;99.90
11505;DHT22;5809;53.262;10.408;2023-04-06T11:14:21;15.00;99.90
11505;DHT22;5809;53.262;10.408;2023-04-06T11:16:49;16.40;99.90
11505;DHT22;5809;53.262;10.408;2023-04-06T11:19:17;16.30;99.90
11505;DHT22;5809;53.262;10.408;2023-04-06T11:21:45;16.40;99.90
11505;DHT22;5809;53.262;10.408;2023-04-06T11:24:14;16.80;99.90
11505;DHT22;5809;53.262;10.408;2023-04-06T11:26:43;16.70;99.90
11505;DHT22;5809;53.262;10.408;2023-04-06T11:29:13;16.20;99.90
11505;DHT22;5809;53.262;10.408;2023-04-06T11:31:42;15.00;99.90
11505;DHT22;5809;53.262;10.408;2023-04-06T11:34:12;14.50;99.90
11505;DHT22;5809;53.262;10.408;2023-04-06T11:36:43;14.20;99.90
11505;DHT22;5809;53.262;10.408;2023-04-06T11:39:11;14.20;99.90
11505;DHT22;5809;53.262;10.408;2023-04-06T11:41:38;15.50;99.90
11505;DHT22;5809;53.262;10.408;2023-04-06T11:44:06;15.70;99.90
11505;DHT22;5809;53.262;10.408;2023-04-06T11:46:34;16.40;99.90
11505;DHT22;5809;53.262;10.408;2023-04-06T11:49:02;16.50;99.90
11505;DHT22;5809;53.262;10.408;2023-04-06T11:51:29;17.00;99.90
11505;DHT22;5809;53.262;10.408;2023-04-06T11:53:56;17.30;99.90
11505;DHT22;5809;53.262;10.408;2023-04-06T11:56:26;16.20;99.90
11505;DHT22;5809;53.262;10.408;2023-04-06T11:58:55;16.80;99.90
11505;DHT22;5809;53.262;10.408;2023-04-06T12:01:22;16.30;99.90
11505;DHT22;5809;53.262;10.408;2023-04-06T12:03:51;15.80;99.90
11505;DHT22;5809;53.262;10.408;2023-04-06T12:06:18;15.60;99.90
11505;DHT22;5809;53.262;10.408;2023-04-06T12:08:45;15.50;99.90
11505;DHT22;5809;53.262;10.408;2023-04-06T12:11:12;11.70;99.90
11505;DHT22;5809;53.262;10.408;2023-04-06T12:13:39;17.00;99.90
11505;DHT22;5809;53.262;10.408;2023-04-06T12:16:07;17.20;99.90
11505;DHT22;5809;53.262;10.408;2023-04-06T12:18:34;16.50;99.90
11505;DHT22;5809;53.262;10.408;2023-04-06T12:21:02;11.30;99.90
11505;DHT22;5809;53.262;10.408;2023-04-06T12:23:31;15.20;99.90
11505;DHT22;5809;53.262;10.408;2023-04-06T12:25:58;16.20;99.90
11505;DHT22;5809;53.262;10.408;2023-04-06T12:28:25;16.00;99.90
11505;DHT22;5809;53.262;10.408;2023-04-06T12:30:52;14.90;99.90
11505;DHT22;5809;53.262;10.408;2023-04-06T12:33:20;16.00;99.90
11505;DHT22;5809;53.262;10.408;2023-04-06T12:35:47;16.10;99.90
11505;DHT22;5809;53.262;10.408;2023-04-06T12:38:16;15.00;99.90
11505;DHT22;5809;53.262;10.408;2023-04-06T12:40:43;14.60;99.90
11505;DHT22;5809;53.262;10.408;2023-04-06T12:43:10;14.10;99.90
11505;DHT22;5809;53.262;10.408;2023-04-06T12:45:39;15.60;99.90
11505;DHT22;5809;53.262;10.408;2023-04-06T12:48:06;16.20;99.90
11505;DHT22;5809;53.262;10.408;2023-04-06T12:50:33;16.50;99.90
11505;DHT22;5809;53.262;10.408;2023-04-06T12:53:00;17.30;99.90
11505;DHT22;5809;53.262;10.408;2023-04-06T12:55:30;17.70;99.90
11505;DHT22;5809;53.262;10.408;2023-04-06T12:58:00;15.70;99.90
11505;DHT22;5809;53.262;10.408;2023-04-06T13:00:27;14.80;99.90
11505;DHT22;5809;53.262;10.408;2023-04-06T13:02:56;15.40;99.90
11505;DHT22;5809;53.262;10.408;2023-04-06T13:05:23;15.90;99.90
11505;DHT22;5809;53.262;10.408;2023-04-06T13:07:50;15.60;99.90
11505;DHT22;5809;53.262;10.408;2023-04-06T13:10:17;15.40;99.90
11505;DHT22;5809;53.262;10.408;2023-04-06T13:12:45;15.70;99.90
11505;DHT22;5809;53.262;10.408;2023-04-06T13:15:12;16.10;99.90
11505;DHT22;5809;53.262;10.408;2023-04-06T13:17:40;16.10;99.90
11505;DHT22;5809;53.262;10.408;2023-04-06T13:20:08;14.30;99.90
11505;DHT22;5809;53.262;10.408;2023-04-06T13:22:35;14.90;99.90
11505;DHT22;5809;53.262;10.408;2023-04-06T13:25:03;15.50;99.90
11505;DHT22;5809;53.262;10.408;2023-04-06T13:27:30;16.00;99.90
11505;DHT22;5809;53.262;10.408;2023-04-06T13:30:00;16.20;99.90
11505;DHT22;5809;53.262;10.408;2023-04-06T13:32:28;15.50;99.90
11505;DHT22;5809;53.262;10.408;2023-04-06T13:34:55;15.60;99.90
11505;DHT22;5809;53.262;10.408;2023-04-06T13:37:22;15.70;99.90
11505;DHT22;5809;53.262;10.408;2023-04-06T13:39:49;15.30;99.90
11505;DHT22;5809;53.262;10.408;2023-04-06T13:42:16;15.00;99.90
11505;DHT22;5809;53.262;10.408;2023-04-06T13:44:45;14.90;99.90
11505;DHT22;5809;53.262;10.408;2023-04-06T13:47:14;16.00;99.90
11505;DHT22;5809;53.262;10.408;2023-04-06T13:49:41;15.70;99.90
11505;DHT22;5809;53.262;10.408;2023-04-06T13:52:08;16.30;99.90
11505;DHT22;5809;53.262;10.408;2023-04-06T13:54:36;16.60;99.90
11505;DHT22;5809;53.262;10.408;2023-04-06T13:57:03;16.20;99.90
11505;DHT22;5809;53.262;10.408;2023-04-06T13:59:34;15.90;99.90
11505;DHT22;5809;53.262;10.408;2023-04-06T14:02:01;14.90;99.90
11505;DHT22;5809;53.262;10.408;2023-04-06T14:04:30;14.80;99.90
11505;DHT22;5809;53.262;10.408;2023-04-06T14:06:57;15.00;99.90
11505;DHT22;5809;53.262;10.408;2023-04-06T14:09:24;15.00;99.90
11505;DHT22;5809;53.262;10.408;2023-04-06T14:11:51;14.90;99.90
11505;DHT22;5809;53.262;10.408;2023-04-06T14:14:18;16.60;99.90
11505;DHT22;5809;53.262;10.408;2023-04-06T14:16:45;17.30;99.90
11505;DHT22;5809;53.262;10.408;2023-04-06T14:19:12;17.30;99.90
11505;DHT22;5809;53.262;10.408;2023-04-06T14:21:41;17.70;99.90
11505;DHT22;5809;53.262;10.408;2023-04-06T14:24:09;15.20;99.90
11505;DHT22;5809;53.262;10.408;2023-04-06T14:26:36;14.20;99.90
11505;DHT22;5809;53.262;10.408;2023-04-06T14:29:03;14.80;99.90
11505;DHT22;5809;53.262;10.408;2023-04-06T14:31:31;15.60;99.90
11505;DHT22;5809;53.262;10.408;2023-04-06T14:34:00;16.60;99.90
11505;DHT22;5809;53.262;10.408;2023-04-06T14:36:27;16.10;99.90
11505;DHT22;5809;53.262;10.408;2023-04-06T14:38:57;16.20;99.90
11505;DHT22;5809;53.262;10.408;2023-04-06T14:41:24;15.40;99.90
11505;DHT22;5809;53.262;10.408;2023-04-06T14:43:51;15.50;99.90
11505;DHT22;5809;53.262;10.408;2023-04-06T14:46:19;16.50;99.90
11505;DHT22;5809;53.262;10.408;2023-04-06T14:48:46;15.90;99.90
11505;DHT22;5809;53.262;10.408;2023-04-06T14:51:13;17.10;99.90
11505;DHT22;5809;53.262;10.408;2023-04-06T14:53:40;16.90;99.90
11505;DHT22;5809;53.262;10.408;2023-04-06T14:56:09;15.30;99.90
11505;DHT22;5809;53.262;10.408;2023-04-06T14:58:35;15.20;99.90
11505;DHT22;5809;53.262;10.408;2023-04-06T15:01:03;14.70;99.90
11505;DHT22;5809;53.262;10.408;2023-04-06T15:03:31;15.40;99.90
11505;DHT22;5809;53.262;10.408;2023-04-06T15:05:58;15.30;99.90
11505;DHT22;5809;53.262;10.408;2023-04-06T15:08:25;15.40;99.90
11505;DHT22;5809;53.262;10.408;2023-04-06T15:10:52;15.40;99.90
11505;DHT22;5809;53.262;10.408;2023-04-06T15:13:21;15.60;99.90
11505;DHT22;5809;53.262;10.408;2023-04-06T15:15:50;15.60;99.90
11505;DHT22;5809;53.262;10.408;2023-04-06T15:18:18;15.20;99.90
11505;DHT22;5809;53.262;10.408;2023-04-06T15:20:45;14.80;99.90
11505;DHT22;5809;53.262;10.408;2023-04-06T15:23:11;16.40;99.90
11505;DHT22;5809;53.262;10.408;2023-04-06T15:25:38;15.40;99.90
11505;DHT22;5809;53.262;10.408;2023-04-06T15:28:06;15.10;99.90
11505;DHT22;5809;53.262;10.408;2023-04-06T15:30:35;14.80;99.90
11505;DHT22;5809;53.262;10.408;2023-04-06T15:33:03;14.90;99.90
11505;DHT22;5809;53.262;10.408;2023-04-06T15:35:31;13.40;99.90
11505;DHT22;5809;53.262;10.408;2023-04-06T15:37:59;13.50;99.90
11505;DHT22;5809;53.262;10.408;2023-04-06T15:40:27;13.10;99.90
11505;DHT22;5809;53.262;10.408;2023-04-06T15:42:53;12.90;99.90
11505;DHT22;5809;53.262;10.408;2023-04-06T15:45:20;12.70;99.90
11505;DHT22;5809;53.262;10.408;2023-04-06T15:47:49;12.50;99.90
11505;DHT22;5809;53.262;10.408;2023-04-06T15:50:15;12.40;99.90
11505;DHT22;5809;53.262;10.408;2023-04-06T15:52:43;12.50;99.90
11505;DHT22;5809;53.262;10.408;2023-04-06T15:55:10;12.50;99.90
11505;DHT22;5809;53.262;10.408;2023-04-06T15:57:37;12.50;99.90
11505;DHT22;5809;53.262;10.408;2023-04-06T16:00:04;12.30;99.90
11505;DHT22;5809;53.262;10.408;2023-04-06T16:02:32;12.10;99.90
11505;DHT22;5809;53.262;10.408;2023-04-06T16:05:00;12.10;99.90
11505;DHT22;5809;53.262;10.408;2023-04-06T16:07:28;12.10;99.90
11505;DHT22;5809;53.262;10.408;2023-04-06T16:09:56;12.10;99.90
11505;DHT22;5809;53.262;10.408;2023-04-06T16:12:23;11.90;99.90
11505;DHT22;5809;53.262;10.408;2023-04-06T16:14:50;12.00;99.90
11505;DHT22;5809;53.262;10.408;2023-04-06T16:17:17;11.90;99.90
11505;DHT22;5809;53.262;10.408;2023-04-06T16:19:44;11.90;99.90
11505;DHT22;5809;53.262;10.408;2023-04-06T16:22:12;11.90;99.90
11505;DHT22;5809;53.262;10.408;2023-04-06T16:27:06;12.00;99.90
11505;DHT22;5809;53.262;10.408;2023-04-06T16:29:34;11.80;99.90
11505;DHT22;5809;53.262;10.408;2023-04-06T16:32:02;11.70;99.90
11505;DHT22;5809;53.262;10.408;2023-04-06T16:34:30;11.70;99.90
11505;DHT22;5809;53.262;10.408;2023-04-06T16:36:57;11.70;99.90
11505;DHT22;5809;53.262;10.408;2023-04-06T16:39:25;11.70;99.90
11505;DHT22;5809;53.262;10.408;2023-04-06T16:41:52;11.80;99.90
11505;DHT22;5809;53.262;10.408;2023-04-06T16:44:19;11.70;99.90
11505;DHT22;5809;53.262;10.408;2023-04-06T16:46:46;11.60;99.90
11505;DHT22;5809;53.262;10.408;2023-04-06T16:49:13;11.60;99.90
11505;DHT22;5809;53.262;10.408;2023-04-06T16:51:42;11.60;99.90
11505;DHT22;5809;53.262;10.408;2023-04-06T16:54:08;11.50;99.90
11505;DHT22;5809;53.262;10.408;2023-04-06T16:56:37;11.60;99.90
11505;DHT22;5809;53.262;10.408;2023-04-06T16:59:06;11.40;99.90
11505;DHT22;5809;53.262;10.408;2023-04-06T17:01:33;11.40;99.90
11505;DHT22;5809;53.262;10.408;2023-04-06T17:04:00;11.40;99.90
11505;DHT22;5809;53.262;10.408;2023-04-06T17:06:27;11.30;99.90
11505;DHT22;5809;53.262;10.408;2023-04-06T17:11:21;11.30;99.90
11505;DHT22;5809;53.262;10.408;2023-04-06T17:13:49;11.20;99.90
11505;DHT22;5809;53.262;10.408;2023-04-06T17:18:43;11.10;99.90
11505;DHT22;5809;53.262;10.408;2023-04-06T17:23:39;11.00;99.90
11505;DHT22;5809;53.262;10.408;2023-04-06T17:26:07;11.00;99.90
11505;DHT22;5809;53.262;10.408;2023-04-06T17:28:34;10.90;99.90
11505;DHT22;5809;53.262;10.408;2023-04-06T17:31:06;10.90;99.90
11505;DHT22;5809;53.262;10.408;2023-04-06T17:33:33;10.80;99.90
11505;DHT22;5809;53.262;10.408;2023-04-06T17:36:01;10.80;99.90
11505;DHT22;5809;53.262;10.408;2023-04-06T17:38:27;10.70;99.90
11505;DHT22;5809;53.262;10.408;2023-04-06T17:40:55;10.60;99.90
11505;DHT22;5809;53.262;10.408;2023-04-06T17:43:22;10.60;99.90
11505;DHT22;5809;53.262;10.408;2023-04-06T17:45:49;10.60;99.90
11505;DHT22;5809;53.262;10.408;2023-04-06T17:48:18;10.50;99.90
11505;DHT22;5809;53.262;10.408;2023-04-06T17:50:45;10.40;99.90
11505;DHT22;5809;53.262;10.408;2023-04-06T17:53:12;10.30;99.90
11505;DHT22;5809;53.262;10.408;2023-04-06T17:55:39;10.30;99.90